Hammonsville, Arkansas
Current Conditions -  °F | °C
As of 1:56 PM on Sunday 23 Nov 2014 (Local Time) from KSRC Reporting Station
Light Rain Light Rain  
Wind Chill: 60°   Ceiling: 600
Heat Index: 60°   Visibility: 8mi
Dew Point: 59°   Wind: 5mph
Humidity: 96%   Direction: 140°SE
Pressure: 29.38"   Gusts: NA
Location:  35.2847°N, 92.1468°W
Report Text: KSRC 231956Z AUTO 14004KT 8SM -RA OVC006 16/15 A2938 RMK AO2 CIG 004V008 SLP953 P0004 T01560150 TSNO
Loading
Personal Weather Stations






























Interactive Weather Map New forecast layout! Learn more

10-Day Weather Forecast

Advertisements
Track Severe Weather on mobile